sensor_id;sensor_type;location;lat;lon;timestamp;P1;durP1;ratioP1;P2;durP2;ratioP2
22614;SDS011;11474;50.790;0.298;2023-09-19T00:02:16;18.33;;;3.53;;
22614;SDS011;11474;50.790;0.298;2023-09-19T00:04:42;17.73;;;3.10;;
22614;SDS011;11474;50.790;0.298;2023-09-19T00:07:09;17.80;;;3.70;;
22614;SDS011;11474;50.790;0.298;2023-09-19T00:09:35;17.75;;;3.55;;
22614;SDS011;11474;50.790;0.298;2023-09-19T00:12:06;18.15;;;3.22;;
22614;SDS011;11474;50.790;0.298;2023-09-19T00:14:34;18.30;;;3.72;;
22614;SDS011;11474;50.790;0.298;2023-09-19T00:17:03;16.52;;;3.50;;
22614;SDS011;11474;50.790;0.298;2023-09-19T00:19:35;16.77;;;3.47;;
22614;SDS011;11474;50.790;0.298;2023-09-19T00:22:02;17.52;;;3.25;;
22614;SDS011;11474;50.790;0.298;2023-09-19T00:24:28;20.08;;;3.75;;
22614;SDS011;11474;50.790;0.298;2023-09-19T00:26:54;21.70;;;3.65;;
22614;SDS011;11474;50.790;0.298;2023-09-19T00:29:25;19.90;;;3.90;;
22614;SDS011;11474;50.790;0.298;2023-09-19T00:31:54;17.20;;;3.30;;
22614;SDS011;11474;50.790;0.298;2023-09-19T00:34:22;19.38;;;3.58;;
22614;SDS011;11474;50.790;0.298;2023-09-19T00:36:48;20.13;;;3.67;;
22614;SDS011;11474;50.790;0.298;2023-09-19T00:39:15;19.52;;;3.60;;
22614;SDS011;11474;50.790;0.298;2023-09-19T00:41:41;16.33;;;3.53;;
22614;SDS011;11474;50.790;0.298;2023-09-19T00:44:09;17.63;;;3.63;;
22614;SDS011;11474;50.790;0.298;2023-09-19T00:46:37;19.02;;;3.88;;
22614;SDS011;11474;50.790;0.298;2023-09-19T00:49:03;23.75;;;3.72;;
22614;SDS011;11474;50.790;0.298;2023-09-19T00:51:29;19.50;;;4.17;;
22614;SDS011;11474;50.790;0.298;2023-09-19T00:53:55;24.08;;;4.68;;
22614;SDS011;11474;50.790;0.298;2023-09-19T00:56:24;21.42;;;4.25;;
22614;SDS011;11474;50.790;0.298;2023-09-19T00:58:50;27.73;;;3.95;;
22614;SDS011;11474;50.790;0.298;2023-09-19T01:01:16;21.70;;;3.83;;
22614;SDS011;11474;50.790;0.298;2023-09-19T01:03:43;18.27;;;3.63;;
22614;SDS011;11474;50.790;0.298;2023-09-19T01:06:10;18.73;;;4.05;;
22614;SDS011;11474;50.790;0.298;2023-09-19T01:08:37;20.05;;;3.92;;
22614;SDS011;11474;50.790;0.298;2023-09-19T01:11:09;25.45;;;4.03;;
22614;SDS011;11474;50.790;0.298;2023-09-19T01:16:21;21.73;;;4.35;;
22614;SDS011;11474;50.790;0.298;2023-09-19T01:18:54;25.63;;;4.10;;
22614;SDS011;11474;50.790;0.298;2023-09-19T01:21:28;25.77;;;4.20;;
22614;SDS011;11474;50.790;0.298;2023-09-19T01:31:49;22.67;;;4.50;;
22614;SDS011;11474;50.790;0.298;2023-09-19T01:34:19;22.83;;;4.20;;
22614;SDS011;11474;50.790;0.298;2023-09-19T01:36:45;25.33;;;4.85;;
22614;SDS011;11474;50.790;0.298;2023-09-19T01:39:11;20.63;;;4.17;;
22614;SDS011;11474;50.790;0.298;2023-09-19T01:44:12;22.70;;;3.83;;
22614;SDS011;11474;50.790;0.298;2023-09-19T01:46:42;15.15;;;3.08;;
22614;SDS011;11474;50.790;0.298;2023-09-19T01:49:22;16.00;;;3.22;;
22614;SDS011;11474;50.790;0.298;2023-09-19T01:52:11;17.58;;;3.90;;
22614;SDS011;11474;50.790;0.298;2023-09-19T01:54:51;20.40;;;3.58;;
22614;SDS011;11474;50.790;0.298;2023-09-19T01:57:31;20.63;;;3.70;;
22614;SDS011;11474;50.790;0.298;2023-09-19T02:00:08;13.93;;;2.85;;
22614;SDS011;11474;50.790;0.298;2023-09-19T02:02:37;20.43;;;4.10;;
22614;SDS011;11474;50.790;0.298;2023-09-19T02:05:06;20.58;;;3.90;;
22614;SDS011;11474;50.790;0.298;2023-09-19T02:07:32;20.27;;;3.50;;
22614;SDS011;11474;50.790;0.298;2023-09-19T02:10:03;16.10;;;3.43;;
22614;SDS011;11474;50.790;0.298;2023-09-19T02:12:30;19.30;;;3.45;;
22614;SDS011;11474;50.790;0.298;2023-09-19T02:14:58;18.83;;;3.47;;
22614;SDS011;11474;50.790;0.298;2023-09-19T02:17:24;18.63;;;3.60;;
22614;SDS011;11474;50.790;0.298;2023-09-19T02:19:54;17.73;;;3.65;;
22614;SDS011;11474;50.790;0.298;2023-09-19T02:22:20;16.90;;;3.20;;
22614;SDS011;11474;50.790;0.298;2023-09-19T02:24:47;20.33;;;3.60;;
22614;SDS011;11474;50.790;0.298;2023-09-19T02:27:14;17.42;;;3.47;;
22614;SDS011;11474;50.790;0.298;2023-09-19T02:29:41;14.95;;;3.80;;
22614;SDS011;11474;50.790;0.298;2023-09-19T02:32:07;21.30;;;3.85;;
22614;SDS011;11474;50.790;0.298;2023-09-19T02:34:36;17.05;;;3.67;;
22614;SDS011;11474;50.790;0.298;2023-09-19T02:37:04;15.07;;;3.25;;
22614;SDS011;11474;50.790;0.298;2023-09-19T02:39:33;18.52;;;3.83;;
22614;SDS011;11474;50.790;0.298;2023-09-19T02:41:59;21.98;;;4.22;;
22614;SDS011;11474;50.790;0.298;2023-09-19T02:44:25;23.20;;;3.80;;
22614;SDS011;11474;50.790;0.298;2023-09-19T02:46:52;24.55;;;4.18;;
22614;SDS011;11474;50.790;0.298;2023-09-19T02:49:18;21.30;;;3.75;;
22614;SDS011;11474;50.790;0.298;2023-09-19T02:51:44;24.95;;;4.28;;
22614;SDS011;11474;50.790;0.298;2023-09-19T02:54:14;17.13;;;3.60;;
22614;SDS011;11474;50.790;0.298;2023-09-19T02:56:41;22.08;;;3.97;;
22614;SDS011;11474;50.790;0.298;2023-09-19T02:59:07;18.45;;;3.85;;
22614;SDS011;11474;50.790;0.298;2023-09-19T03:01:35;21.65;;;4.63;;
22614;SDS011;11474;50.790;0.298;2023-09-19T03:04:02;24.75;;;5.10;;
22614;SDS011;11474;50.790;0.298;2023-09-19T03:06:31;22.65;;;3.95;;
22614;SDS011;11474;50.790;0.298;2023-09-19T03:08:57;26.77;;;4.27;;
22614;SDS011;11474;50.790;0.298;2023-09-19T03:11:25;24.92;;;4.97;;
22614;SDS011;11474;50.790;0.298;2023-09-19T03:13:52;23.08;;;4.53;;
22614;SDS011;11474;50.790;0.298;2023-09-19T03:16:18;29.23;;;4.45;;
22614;SDS011;11474;50.790;0.298;2023-09-19T03:18:46;26.70;;;5.03;;
22614;SDS011;11474;50.790;0.298;2023-09-19T03:21:14;27.98;;;4.85;;
22614;SDS011;11474;50.790;0.298;2023-09-19T03:23:40;27.55;;;4.65;;
22614;SDS011;11474;50.790;0.298;2023-09-19T03:26:06;24.98;;;4.20;;
22614;SDS011;11474;50.790;0.298;2023-09-19T03:28:33;23.90;;;3.63;;
22614;SDS011;11474;50.790;0.298;2023-09-19T03:31:03;23.37;;;4.07;;
22614;SDS011;11474;50.790;0.298;2023-09-19T03:33:30;22.88;;;3.65;;
22614;SDS011;11474;50.790;0.298;2023-09-19T03:35:59;22.83;;;3.85;;
22614;SDS011;11474;50.790;0.298;2023-09-19T03:38:26;21.05;;;4.25;;
22614;SDS011;11474;50.790;0.298;2023-09-19T03:40:53;22.40;;;3.67;;
22614;SDS011;11474;50.790;0.298;2023-09-19T03:43:20;20.55;;;3.67;;
22614;SDS011;11474;50.790;0.298;2023-09-19T03:45:46;25.05;;;4.35;;
22614;SDS011;11474;50.790;0.298;2023-09-19T03:48:12;22.00;;;3.65;;
22614;SDS011;11474;50.790;0.298;2023-09-19T03:50:38;21.00;;;3.67;;
22614;SDS011;11474;50.790;0.298;2023-09-19T03:53:04;23.38;;;3.80;;
22614;SDS011;11474;50.790;0.298;2023-09-19T03:55:33;24.20;;;3.40;;
22614;SDS011;11474;50.790;0.298;2023-09-19T03:58:04;21.33;;;4.47;;
22614;SDS011;11474;50.790;0.298;2023-09-19T04:00:30;18.90;;;3.17;;
22614;SDS011;11474;50.790;0.298;2023-09-19T04:02:56;19.17;;;3.70;;
22614;SDS011;11474;50.790;0.298;2023-09-19T04:05:23;17.98;;;3.55;;
22614;SDS011;11474;50.790;0.298;2023-09-19T04:07:49;21.02;;;3.35;;
22614;SDS011;11474;50.790;0.298;2023-09-19T04:10:15;23.97;;;3.97;;
22614;SDS011;11474;50.790;0.298;2023-09-19T04:12:50;20.33;;;3.75;;
22614;SDS011;11474;50.790;0.298;2023-09-19T04:15:17;21.60;;;3.60;;
22614;SDS011;11474;50.790;0.298;2023-09-19T04:17:43;19.02;;;3.50;;
22614;SDS011;11474;50.790;0.298;2023-09-19T04:20:09;22.15;;;3.65;;
22614;SDS011;11474;50.790;0.298;2023-09-19T04:22:37;26.63;;;3.75;;
22614;SDS011;11474;50.790;0.298;2023-09-19T04:25:04;21.77;;;3.80;;
22614;SDS011;11474;50.790;0.298;2023-09-19T04:27:32;22.45;;;3.80;;
22614;SDS011;11474;50.790;0.298;2023-09-19T04:29:58;23.07;;;3.73;;
22614;SDS011;11474;50.790;0.298;2023-09-19T04:32:30;26.02;;;3.58;;
22614;SDS011;11474;50.790;0.298;2023-09-19T04:34:57;20.55;;;3.30;;
22614;SDS011;11474;50.790;0.298;2023-09-19T04:37:25;17.65;;;3.58;;
22614;SDS011;11474;50.790;0.298;2023-09-19T04:39:51;16.73;;;2.97;;
22614;SDS011;11474;50.790;0.298;2023-09-19T04:42:18;19.10;;;3.10;;
22614;SDS011;11474;50.790;0.298;2023-09-19T04:44:44;14.48;;;2.65;;
22614;SDS011;11474;50.790;0.298;2023-09-19T04:47:10;14.55;;;2.80;;
22614;SDS011;11474;50.790;0.298;2023-09-19T04:49:37;21.15;;;3.25;;
22614;SDS011;11474;50.790;0.298;2023-09-19T04:52:05;17.98;;;3.00;;
22614;SDS011;11474;50.790;0.298;2023-09-19T04:54:31;21.67;;;3.33;;
22614;SDS011;11474;50.790;0.298;2023-09-19T04:56:59;28.43;;;4.13;;
22614;SDS011;11474;50.790;0.298;2023-09-19T04:59:31;19.70;;;3.33;;
22614;SDS011;11474;50.790;0.298;2023-09-19T05:01:57;20.48;;;3.20;;
22614;SDS011;11474;50.790;0.298;2023-09-19T05:04:23;22.87;;;3.53;;
22614;SDS011;11474;50.790;0.298;2023-09-19T05:06:49;16.80;;;3.20;;
22614;SDS011;11474;50.790;0.298;2023-09-19T05:09:16;19.73;;;3.17;;
22614;SDS011;11474;50.790;0.298;2023-09-19T05:11:44;24.45;;;3.05;;
22614;SDS011;11474;50.790;0.298;2023-09-19T05:14:11;19.25;;;3.42;;
22614;SDS011;11474;50.790;0.298;2023-09-19T05:16:37;20.63;;;3.35;;
22614;SDS011;11474;50.790;0.298;2023-09-19T05:19:03;19.52;;;3.35;;
22614;SDS011;11474;50.790;0.298;2023-09-19T05:21:32;20.85;;;3.35;;
22614;SDS011;11474;50.790;0.298;2023-09-19T05:23:59;20.13;;;3.42;;
22614;SDS011;11474;50.790;0.298;2023-09-19T05:26:25;17.83;;;3.30;;
22614;SDS011;11474;50.790;0.298;2023-09-19T05:28:51;15.98;;;3.08;;
22614;SDS011;11474;50.790;0.298;2023-09-19T05:31:18;15.38;;;2.50;;
22614;SDS011;11474;50.790;0.298;2023-09-19T05:33:44;21.38;;;3.20;;
22614;SDS011;11474;50.790;0.298;2023-09-19T05:36:10;17.40;;;2.47;;
22614;SDS011;11474;50.790;0.298;2023-09-19T05:38:37;15.88;;;2.90;;
22614;SDS011;11474;50.790;0.298;2023-09-19T05:41:05;15.48;;;2.83;;
22614;SDS011;11474;50.790;0.298;2023-09-19T05:43:33;18.42;;;3.70;;
22614;SDS011;11474;50.790;0.298;2023-09-19T05:46:02;18.73;;;3.03;;
22614;SDS011;11474;50.790;0.298;2023-09-19T05:48:28;18.83;;;2.97;;
22614;SDS011;11474;50.790;0.298;2023-09-19T05:50:54;22.87;;;3.60;;
22614;SDS011;11474;50.790;0.298;2023-09-19T05:53:21;20.00;;;3.42;;
22614;SDS011;11474;50.790;0.298;2023-09-19T05:55:48;19.10;;;3.10;;
22614;SDS011;11474;50.790;0.298;2023-09-19T05:58:14;12.50;;;2.15;;
22614;SDS011;11474;50.790;0.298;2023-09-19T06:00:42;14.40;;;2.53;;
22614;SDS011;11474;50.790;0.298;2023-09-19T06:03:09;19.50;;;2.90;;
22614;SDS011;11474;50.790;0.298;2023-09-19T06:05:39;17.60;;;3.53;;
22614;SDS011;11474;50.790;0.298;2023-09-19T06:08:06;18.35;;;3.20;;
22614;SDS011;11474;50.790;0.298;2023-09-19T06:10:35;17.20;;;3.58;;
22614;SDS011;11474;50.790;0.298;2023-09-19T06:13:02;11.20;;;2.33;;
22614;SDS011;11474;50.790;0.298;2023-09-19T06:15:34;20.05;;;4.18;;
22614;SDS011;11474;50.790;0.298;2023-09-19T06:18:01;30.70;;;4.85;;
22614;SDS011;11474;50.790;0.298;2023-09-19T06:20:30;25.85;;;4.32;;
22614;SDS011;11474;50.790;0.298;2023-09-19T06:22:56;28.25;;;4.00;;
22614;SDS011;11474;50.790;0.298;2023-09-19T06:25:22;25.23;;;4.47;;
22614;SDS011;11474;50.790;0.298;2023-09-19T06:27:49;27.65;;;4.18;;
22614;SDS011;11474;50.790;0.298;2023-09-19T06:30:18;22.67;;;4.10;;
22614;SDS011;11474;50.790;0.298;2023-09-19T06:32:44;23.70;;;4.38;;
22614;SDS011;11474;50.790;0.298;2023-09-19T06:35:14;25.30;;;4.40;;
22614;SDS011;11474;50.790;0.298;2023-09-19T06:37:41;19.67;;;4.00;;
22614;SDS011;11474;50.790;0.298;2023-09-19T06:40:10;23.40;;;4.40;;
22614;SDS011;11474;50.790;0.298;2023-09-19T06:42:42;26.50;;;4.03;;
22614;SDS011;11474;50.790;0.298;2023-09-19T06:45:12;31.70;;;4.82;;
22614;SDS011;11474;50.790;0.298;2023-09-19T06:47:45;27.53;;;4.63;;
22614;SDS011;11474;50.790;0.298;2023-09-19T06:50:15;28.55;;;4.95;;
22614;SDS011;11474;50.790;0.298;2023-09-19T06:52:43;30.15;;;5.03;;
22614;SDS011;11474;50.790;0.298;2023-09-19T06:55:10;26.50;;;4.95;;
22614;SDS011;11474;50.790;0.298;2023-09-19T06:57:38;29.08;;;4.50;;
22614;SDS011;11474;50.790;0.298;2023-09-19T07:00:06;25.00;;;4.53;;
22614;SDS011;11474;50.790;0.298;2023-09-19T07:02:41;26.15;;;4.55;;
22614;SDS011;11474;50.790;0.298;2023-09-19T07:05:07;23.67;;;4.57;;
22614;SDS011;11474;50.790;0.298;2023-09-19T07:07:34;28.92;;;4.53;;
22614;SDS011;11474;50.790;0.298;2023-09-19T07:10:01;26.20;;;4.30;;
22614;SDS011;11474;50.790;0.298;2023-09-19T07:12:27;23.48;;;4.60;;
22614;SDS011;11474;50.790;0.298;2023-09-19T07:14:53;22.45;;;4.15;;
22614;SDS011;11474;50.790;0.298;2023-09-19T07:17:19;26.92;;;4.40;;
22614;SDS011;11474;50.790;0.298;2023-09-19T07:19:46;22.27;;;4.27;;
22614;SDS011;11474;50.790;0.298;2023-09-19T07:22:13;28.48;;;4.32;;
22614;SDS011;11474;50.790;0.298;2023-09-19T07:24:40;27.27;;;5.00;;
22614;SDS011;11474;50.790;0.298;2023-09-19T07:27:06;27.05;;;4.18;;
22614;SDS011;11474;50.790;0.298;2023-09-19T07:29:32;20.88;;;4.30;;
22614;SDS011;11474;50.790;0.298;2023-09-19T07:31:58;23.17;;;4.22;;
22614;SDS011;11474;50.790;0.298;2023-09-19T07:34:24;21.45;;;4.35;;
22614;SDS011;11474;50.790;0.298;2023-09-19T07:36:50;38.40;;;5.03;;
22614;SDS011;11474;50.790;0.298;2023-09-19T07:39:16;33.28;;;5.57;;
22614;SDS011;11474;50.790;0.298;2023-09-19T07:41:43;33.08;;;5.72;;
22614;SDS011;11474;50.790;0.298;2023-09-19T07:44:09;34.30;;;5.07;;
22614;SDS011;11474;50.790;0.298;2023-09-19T07:46:35;32.35;;;4.63;;
22614;SDS011;11474;50.790;0.298;2023-09-19T07:49:01;25.65;;;4.38;;
22614;SDS011;11474;50.790;0.298;2023-09-19T07:51:27;22.73;;;4.20;;
22614;SDS011;11474;50.790;0.298;2023-09-19T07:53:54;23.27;;;3.80;;
22614;SDS011;11474;50.790;0.298;2023-09-19T07:56:20;29.63;;;4.53;;
22614;SDS011;11474;50.790;0.298;2023-09-19T07:58:47;23.00;;;4.22;;
22614;SDS011;11474;50.790;0.298;2023-09-19T08:01:14;32.13;;;4.50;;
22614;SDS011;11474;50.790;0.298;2023-09-19T08:03:41;25.65;;;4.45;;
22614;SDS011;11474;50.790;0.298;2023-09-19T08:06:08;24.38;;;4.85;;
22614;SDS011;11474;50.790;0.298;2023-09-19T08:08:34;24.63;;;4.68;;
22614;SDS011;11474;50.790;0.298;2023-09-19T08:11:04;24.45;;;4.65;;
22614;SDS011;11474;50.790;0.298;2023-09-19T08:13:39;24.95;;;4.68;;
22614;SDS011;11474;50.790;0.298;2023-09-19T08:16:09;24.77;;;4.15;;
22614;SDS011;11474;50.790;0.298;2023-09-19T08:18:35;28.42;;;4.72;;
22614;SDS011;11474;50.790;0.298;2023-09-19T08:21:05;25.42;;;4.60;;
22614;SDS011;11474;50.790;0.298;2023-09-19T08:23:36;21.92;;;4.30;;
22614;SDS011;11474;50.790;0.298;2023-09-19T08:26:03;26.33;;;5.40;;
22614;SDS011;11474;50.790;0.298;2023-09-19T08:28:33;26.42;;;5.25;;
22614;SDS011;11474;50.790;0.298;2023-09-19T08:31:03;26.98;;;4.63;;
22614;SDS011;11474;50.790;0.298;2023-09-19T08:33:31;24.75;;;5.47;;
22614;SDS011;11474;50.790;0.298;2023-09-19T08:35:57;24.90;;;4.75;;
22614;SDS011;11474;50.790;0.298;2023-09-19T08:38:23;36.03;;;5.43;;
22614;SDS011;11474;50.790;0.298;2023-09-19T08:40:56;28.90;;;4.78;;
22614;SDS011;11474;50.790;0.298;2023-09-19T08:43:24;30.38;;;4.97;;
22614;SDS011;11474;50.790;0.298;2023-09-19T08:45:53;27.13;;;4.78;;
22614;SDS011;11474;50.790;0.298;2023-09-19T08:48:23;26.37;;;5.33;;
22614;SDS011;11474;50.790;0.298;2023-09-19T08:50:51;33.67;;;5.75;;
22614;SDS011;11474;50.790;0.298;2023-09-19T08:53:21;32.20;;;5.65;;
22614;SDS011;11474;50.790;0.298;2023-09-19T08:55:52;26.73;;;5.13;;
22614;SDS011;11474;50.790;0.298;2023-09-19T08:58:23;31.73;;;4.85;;
22614;SDS011;11474;50.790;0.298;2023-09-19T09:00:54;30.73;;;5.97;;
22614;SDS011;11474;50.790;0.298;2023-09-19T09:03:20;29.85;;;5.32;;
22614;SDS011;11474;50.790;0.298;2023-09-19T09:05:47;23.92;;;5.32;;
22614;SDS011;11474;50.790;0.298;2023-09-19T09:08:15;29.27;;;5.32;;
22614;SDS011;11474;50.790;0.298;2023-09-19T09:10:43;30.85;;;5.97;;
22614;SDS011;11474;50.790;0.298;2023-09-19T09:13:09;32.38;;;6.20;;
22614;SDS011;11474;50.790;0.298;2023-09-19T09:15:39;30.73;;;5.63;;
22614;SDS011;11474;50.790;0.298;2023-09-19T09:18:06;30.77;;;6.20;;
22614;SDS011;11474;50.790;0.298;2023-09-19T09:20:32;30.30;;;5.63;;
22614;SDS011;11474;50.790;0.298;2023-09-19T09:22:58;24.52;;;5.65;;
22614;SDS011;11474;50.790;0.298;2023-09-19T09:28:24;22.98;;;4.82;;
22614;SDS011;11474;50.790;0.298;2023-09-19T09:30:53;25.58;;;4.72;;
22614;SDS011;11474;50.790;0.298;2023-09-19T09:33:19;27.73;;;5.70;;
22614;SDS011;11474;50.790;0.298;2023-09-19T09:35:49;24.80;;;5.38;;
22614;SDS011;11474;50.790;0.298;2023-09-19T09:38:19;28.98;;;5.32;;
22614;SDS011;11474;50.790;0.298;2023-09-19T09:40:46;31.58;;;5.90;;
22614;SDS011;11474;50.790;0.298;2023-09-19T09:43:25;29.75;;;5.50;;
22614;SDS011;11474;50.790;0.298;2023-09-19T09:51:49;27.97;;;5.97;;
22614;SDS011;11474;50.790;0.298;2023-09-19T09:54:26;23.23;;;5.15;;
22614;SDS011;11474;50.790;0.298;2023-09-19T09:57:02;26.27;;;5.65;;
22614;SDS011;11474;50.790;0.298;2023-09-19T09:59:49;26.98;;;6.28;;
22614;SDS011;11474;50.790;0.298;2023-09-19T10:02:17;35.03;;;6.80;;
22614;SDS011;11474;50.790;0.298;2023-09-19T10:04:49;32.13;;;6.25;;
22614;SDS011;11474;50.790;0.298;2023-09-19T10:07:34;30.23;;;6.18;;
22614;SDS011;11474;50.790;0.298;2023-09-19T10:10:05;37.25;;;7.10;;
22614;SDS011;11474;50.790;0.298;2023-09-19T10:12:44;25.47;;;6.13;;
22614;SDS011;11474;50.790;0.298;2023-09-19T10:15:12;35.37;;;6.23;;
22614;SDS011;11474;50.790;0.298;2023-09-19T10:17:42;33.35;;;6.20;;
22614;SDS011;11474;50.790;0.298;2023-09-19T10:20:17;33.10;;;6.68;;
22614;SDS011;11474;50.790;0.298;2023-09-19T10:23:12;25.70;;;5.77;;
22614;SDS011;11474;50.790;0.298;2023-09-19T10:25:40;28.05;;;6.38;;
22614;SDS011;11474;50.790;0.298;2023-09-19T10:28:07;25.42;;;5.38;;
22614;SDS011;11474;50.790;0.298;2023-09-19T10:30:46;49.67;;;6.70;;
22614;SDS011;11474;50.790;0.298;2023-09-19T10:33:15;32.95;;;6.55;;
22614;SDS011;11474;50.790;0.298;2023-09-19T10:35:44;39.63;;;7.70;;
22614;SDS011;11474;50.790;0.298;2023-09-19T10:38:11;36.17;;;6.60;;
22614;SDS011;11474;50.790;0.298;2023-09-19T10:40:38;24.60;;;5.78;;
22614;SDS011;11474;50.790;0.298;2023-09-19T10:43:20;31.95;;;6.03;;
22614;SDS011;11474;50.790;0.298;2023-09-19T10:45:48;36.50;;;6.85;;
22614;SDS011;11474;50.790;0.298;2023-09-19T10:48:17;35.53;;;6.85;;
22614;SDS011;11474;50.790;0.298;2023-09-19T10:53:16;34.67;;;6.07;;
22614;SDS011;11474;50.790;0.298;2023-09-19T10:55:53;38.20;;;7.32;;
22614;SDS011;11474;50.790;0.298;2023-09-19T10:58:26;35.25;;;7.20;;
22614;SDS011;11474;50.790;0.298;2023-09-19T11:00:54;33.08;;;6.68;;
22614;SDS011;11474;50.790;0.298;2023-09-19T11:03:22;36.50;;;7.00;;
22614;SDS011;11474;50.790;0.298;2023-09-19T11:08:30;30.88;;;6.28;;
22614;SDS011;11474;50.790;0.298;2023-09-19T11:10:57;30.90;;;6.63;;
22614;SDS011;11474;50.790;0.298;2023-09-19T11:13:28;31.95;;;6.75;;
22614;SDS011;11474;50.790;0.298;2023-09-19T11:26:57;37.53;;;7.82;;
22614;SDS011;11474;50.790;0.298;2023-09-19T11:29:35;36.80;;;8.10;;
22614;SDS011;11474;50.790;0.298;2023-09-19T11:32:02;37.97;;;7.40;;
22614;SDS011;11474;50.790;0.298;2023-09-19T11:39:42;39.57;;;7.50;;
22614;SDS011;11474;50.790;0.298;2023-09-19T11:45:52;38.83;;;8.03;;
22614;SDS011;11474;50.790;0.298;2023-09-19T11:47:55;38.92;;;7.57;;
22614;SDS011;11474;50.790;0.298;2023-09-19T11:50:21;34.92;;;7.38;;
22614;SDS011;11474;50.790;0.298;2023-09-19T11:52:50;36.03;;;7.80;;
22614;SDS011;11474;50.790;0.298;2023-09-19T11:55:16;33.47;;;7.43;;
22614;SDS011;11474;50.790;0.298;2023-09-19T11:57:47;36.85;;;7.95;;
22614;SDS011;11474;50.790;0.298;2023-09-19T12:00:18;41.22;;;8.30;;
22614;SDS011;11474;50.790;0.298;2023-09-19T12:02:46;37.03;;;7.68;;
22614;SDS011;11474;50.790;0.298;2023-09-19T12:05:13;35.13;;;8.25;;
22614;SDS011;11474;50.790;0.298;2023-09-19T12:07:43;38.70;;;8.70;;
22614;SDS011;11474;50.790;0.298;2023-09-19T12:10:13;41.30;;;9.05;;
22614;SDS011;11474;50.790;0.298;2023-09-19T12:12:46;33.63;;;7.38;;
22614;SDS011;11474;50.790;0.298;2023-09-19T12:15:14;38.65;;;8.40;;
22614;SDS011;11474;50.790;0.298;2023-09-19T12:17:40;45.65;;;8.55;;
22614;SDS011;11474;50.790;0.298;2023-09-19T12:20:08;42.40;;;7.82;;
22614;SDS011;11474;50.790;0.298;2023-09-19T12:22:43;43.78;;;7.88;;
22614;SDS011;11474;50.790;0.298;2023-09-19T12:25:10;40.45;;;7.90;;
22614;SDS011;11474;50.790;0.298;2023-09-19T12:27:49;42.28;;;8.82;;
22614;SDS011;11474;50.790;0.298;2023-09-19T12:30:18;40.35;;;7.95;;
22614;SDS011;11474;50.790;0.298;2023-09-19T12:32:46;44.78;;;8.30;;
22614;SDS011;11474;50.790;0.298;2023-09-19T12:35:31;38.15;;;8.73;;
22614;SDS011;11474;50.790;0.298;2023-09-19T12:38:00;38.28;;;8.27;;
22614;SDS011;11474;50.790;0.298;2023-09-19T12:40:26;43.10;;;9.30;;
22614;SDS011;11474;50.790;0.298;2023-09-19T12:42:58;36.70;;;8.57;;
22614;SDS011;11474;50.790;0.298;2023-09-19T12:45:25;40.03;;;8.50;;
22614;SDS011;11474;50.790;0.298;2023-09-19T12:50:36;37.85;;;9.45;;
22614;SDS011;11474;50.790;0.298;2023-09-19T12:53:26;42.85;;;8.68;;
22614;SDS011;11474;50.790;0.298;2023-09-19T12:55:58;42.17;;;8.40;;
22614;SDS011;11474;50.790;0.298;2023-09-19T12:58:25;51.53;;;9.50;;
22614;SDS011;11474;50.790;0.298;2023-09-19T13:00:51;34.28;;;7.78;;
22614;SDS011;11474;50.790;0.298;2023-09-19T13:08:26;32.30;;;7.28;;
22614;SDS011;11474;50.790;0.298;2023-09-19T13:11:01;44.93;;;8.50;;
22614;SDS011;11474;50.790;0.298;2023-09-19T13:13:27;51.17;;;9.45;;
22614;SDS011;11474;50.790;0.298;2023-09-19T13:15:54;41.08;;;8.77;;
22614;SDS011;11474;50.790;0.298;2023-09-19T13:18:23;34.10;;;7.47;;
22614;SDS011;11474;50.790;0.298;2023-09-19T13:21:06;31.57;;;6.93;;
22614;SDS011;11474;50.790;0.298;2023-09-19T13:23:37;31.00;;;6.47;;
22614;SDS011;11474;50.790;0.298;2023-09-19T13:26:05;36.03;;;7.43;;
22614;SDS011;11474;50.790;0.298;2023-09-19T13:28:31;37.47;;;7.10;;
22614;SDS011;11474;50.790;0.298;2023-09-19T13:30:59;31.00;;;7.53;;
22614;SDS011;11474;50.790;0.298;2023-09-19T13:33:25;32.63;;;7.27;;
22614;SDS011;11474;50.790;0.298;2023-09-19T13:35:51;44.35;;;7.50;;
22614;SDS011;11474;50.790;0.298;2023-09-19T13:38:18;33.58;;;7.50;;
22614;SDS011;11474;50.790;0.298;2023-09-19T13:40:47;36.35;;;8.02;;
22614;SDS011;11474;50.790;0.298;2023-09-19T13:43:17;40.90;;;8.27;;
22614;SDS011;11474;50.790;0.298;2023-09-19T13:45:44;41.92;;;7.97;;
22614;SDS011;11474;50.790;0.298;2023-09-19T13:48:10;39.67;;;8.00;;
22614;SDS011;11474;50.790;0.298;2023-09-19T13:50:36;38.97;;;9.80;;
22614;SDS011;11474;50.790;0.298;2023-09-19T13:53:07;40.45;;;9.43;;
22614;SDS011;11474;50.790;0.298;2023-09-19T13:55:34;39.27;;;9.10;;
22614;SDS011;11474;50.790;0.298;2023-09-19T13:58:03;41.33;;;8.90;;
22614;SDS011;11474;50.790;0.298;2023-09-19T14:00:32;47.57;;;9.37;;
22614;SDS011;11474;50.790;0.298;2023-09-19T14:03:01;37.85;;;8.40;;
22614;SDS011;11474;50.790;0.298;2023-09-19T14:05:29;41.45;;;8.60;;
22614;SDS011;11474;50.790;0.298;2023-09-19T14:07:55;44.97;;;10.37;;
22614;SDS011;11474;50.790;0.298;2023-09-19T14:10:24;52.65;;;9.23;;
22614;SDS011;11474;50.790;0.298;2023-09-19T14:12:52;40.45;;;9.10;;
22614;SDS011;11474;50.790;0.298;2023-09-19T14:15:19;49.07;;;9.33;;
22614;SDS011;11474;50.790;0.298;2023-09-19T14:17:45;42.22;;;8.85;;
22614;SDS011;11474;50.790;0.298;2023-09-19T14:20:11;49.90;;;9.73;;
22614;SDS011;11474;50.790;0.298;2023-09-19T14:22:37;45.20;;;8.68;;
22614;SDS011;11474;50.790;0.298;2023-09-19T14:25:04;41.70;;;8.50;;
22614;SDS011;11474;50.790;0.298;2023-09-19T14:27:30;42.70;;;9.63;;
22614;SDS011;11474;50.790;0.298;2023-09-19T14:29:57;43.60;;;9.10;;
22614;SDS011;11474;50.790;0.298;2023-09-19T14:32:23;43.10;;;8.70;;
22614;SDS011;11474;50.790;0.298;2023-09-19T14:34:49;42.83;;;8.70;;
22614;SDS011;11474;50.790;0.298;2023-09-19T14:37:15;37.45;;;7.28;;
22614;SDS011;11474;50.790;0.298;2023-09-19T14:39:42;38.47;;;6.80;;
22614;SDS011;11474;50.790;0.298;2023-09-19T14:42:11;35.40;;;7.10;;
22614;SDS011;11474;50.790;0.298;2023-09-19T14:44:39;37.03;;;7.50;;
22614;SDS011;11474;50.790;0.298;2023-09-19T14:47:06;37.83;;;8.27;;
22614;SDS011;11474;50.790;0.298;2023-09-19T14:49:35;46.73;;;8.90;;
22614;SDS011;11474;50.790;0.298;2023-09-19T14:52:03;43.70;;;8.40;;
22614;SDS011;11474;50.790;0.298;2023-09-19T14:54:29;39.33;;;8.68;;
22614;SDS011;11474;50.790;0.298;2023-09-19T14:56:56;54.42;;;11.15;;
22614;SDS011;11474;50.790;0.298;2023-09-19T14:59:32;40.55;;;8.90;;
22614;SDS011;11474;50.790;0.298;2023-09-19T15:02:01;45.72;;;9.55;;
22614;SDS011;11474;50.790;0.298;2023-09-19T15:04:28;53.17;;;9.60;;
22614;SDS011;11474;50.790;0.298;2023-09-19T15:06:54;50.63;;;9.93;;
22614;SDS011;11474;50.790;0.298;2023-09-19T15:09:21;43.55;;;8.82;;
22614;SDS011;11474;50.790;0.298;2023-09-19T15:11:54;43.27;;;9.03;;
22614;SDS011;11474;50.790;0.298;2023-09-19T15:14:23;38.67;;;8.25;;
22614;SDS011;11474;50.790;0.298;2023-09-19T15:16:54;55.58;;;9.35;;
22614;SDS011;11474;50.790;0.298;2023-09-19T15:19:20;38.58;;;9.90;;
22614;SDS011;11474;50.790;0.298;2023-09-19T15:21:47;43.92;;;8.10;;
22614;SDS011;11474;50.790;0.298;2023-09-19T15:24:14;49.55;;;9.35;;
22614;SDS011;11474;50.790;0.298;2023-09-19T15:26:42;53.30;;;9.10;;
22614;SDS011;11474;50.790;0.298;2023-09-19T15:29:10;45.08;;;8.80;;
22614;SDS011;11474;50.790;0.298;2023-09-19T15:31:36;49.35;;;8.95;;
22614;SDS011;11474;50.790;0.298;2023-09-19T15:34:03;40.53;;;8.70;;
22614;SDS011;11474;50.790;0.298;2023-09-19T15:36:30;36.80;;;8.80;;